sensor_id;sensor_type;location;lat;lon;timestamp;pressure;altitude;pressure_sealevel;temperature;humidity
70304;BME280;57712;48.752;11.348;2023-11-19T00:01:50;97613.97;;;6.38;100.00
70304;BME280;57712;48.752;11.348;2023-11-19T00:04:17;97619.03;;;6.39;100.00
70304;BME280;57712;48.752;11.348;2023-11-19T00:06:44;97613.97;;;6.38;100.00
70304;BME280;57712;48.752;11.348;2023-11-19T00:09:11;97615.50;;;6.42;100.00
70304;BME280;57712;48.752;11.348;2023-11-19T00:11:38;97606.19;;;6.61;100.00
70304;BME280;57712;48.752;11.348;2023-11-19T00:14:05;97599.19;;;6.39;100.00
70304;BME280;57712;48.752;11.348;2023-11-19T00:16:35;97602.31;;;6.48;100.00
70304;BME280;57712;48.752;11.348;2023-11-19T00:19:02;97601.91;;;6.39;100.00
70304;BME280;57712;48.752;11.348;2023-11-19T00:21:30;97588.69;;;6.44;100.00
70304;BME280;57712;48.752;11.348;2023-11-19T00:23:59;97602.31;;;6.58;100.00
70304;BME280;57712;48.752;11.348;2023-11-19T00:26:26;97591.41;;;6.62;100.00
70304;BME280;57712;48.752;11.348;2023-11-19T00:28:53;97579.75;;;6.58;100.00
70304;BME280;57712;48.752;11.348;2023-11-19T00:31:20;97583.25;;;6.65;100.00
70304;BME280;57712;48.752;11.348;2023-11-19T00:33:46;97575.09;;;6.55;100.00
70304;BME280;57712;48.752;11.348;2023-11-19T00:36:16;97560.72;;;6.47;100.00
70304;BME280;57712;48.752;11.348;2023-11-19T00:38:42;97570.44;;;6.59;100.00
70304;BME280;57712;48.752;11.348;2023-11-19T00:41:09;97556.44;;;6.46;100.00
70304;BME280;57712;48.752;11.348;2023-11-19T00:43:36;97568.88;;;6.54;100.00
70304;BME280;57712;48.752;11.348;2023-11-19T00:46:03;97556.41;;;6.71;100.00
70304;BME280;57712;48.752;11.348;2023-11-19T00:48:33;97554.88;;;6.70;100.00
70304;BME280;57712;48.752;11.348;2023-11-19T00:51:00;97539.31;;;6.78;100.00
70304;BME280;57712;48.752;11.348;2023-11-19T00:53:27;97524.50;;;6.75;100.00
70304;BME280;57712;48.752;11.348;2023-11-19T00:55:54;97526.47;;;6.71;100.00
70304;BME280;57712;48.752;11.348;2023-11-19T00:58:21;97527.63;;;6.70;100.00
70304;BME280;57712;48.752;11.348;2023-11-19T01:00:48;97540.84;;;6.79;100.00
70304;BME280;57712;48.752;11.348;2023-11-19T01:03:15;97547.03;;;6.86;100.00
70304;BME280;57712;48.752;11.348;2023-11-19T01:05:42;97545.47;;;6.85;100.00
70304;BME280;57712;48.752;11.348;2023-11-19T01:08:10;97544.72;;;6.81;100.00
70304;BME280;57712;48.752;11.348;2023-11-19T01:10:37;97535.38;;;6.82;100.00
70304;BME280;57712;48.752;11.348;2023-11-19T01:13:04;97540.03;;;6.85;100.00
70304;BME280;57712;48.752;11.348;2023-11-19T01:15:32;97533.09;;;6.70;100.00
70304;BME280;57712;48.752;11.348;2023-11-19T01:17:59;97529.56;;;6.66;100.00
70304;BME280;57712;48.752;11.348;2023-11-19T01:20:26;97529.56;;;6.77;100.00
70304;BME280;57712;48.752;11.348;2023-11-19T01:22:53;97523.75;;;6.78;100.00
70304;BME280;57712;48.752;11.348;2023-11-19T01:25:19;97521.41;;;6.73;100.00
70304;BME280;57712;48.752;11.348;2023-11-19T01:27:46;97519.81;;;6.86;100.00
70304;BME280;57712;48.752;11.348;2023-11-19T01:30:13;97528.38;;;6.88;100.00
70304;BME280;57712;48.752;11.348;2023-11-19T01:32:40;97525.66;;;6.88;100.00
70304;BME280;57712;48.752;11.348;2023-11-19T01:35:07;97517.13;;;6.76;100.00
70304;BME280;57712;48.752;11.348;2023-11-19T01:37:34;97513.97;;;6.84;100.00
70304;BME280;57712;48.752;11.348;2023-11-19T01:40:03;97515.94;;;6.80;100.00
70304;BME280;57712;48.752;11.348;2023-11-19T01:42:39;97520.97;;;6.92;100.00
70304;BME280;57712;48.752;11.348;2023-11-19T01:45:07;97522.97;;;6.78;100.00
70304;BME280;57712;48.752;11.348;2023-11-19T01:47:37;97515.53;;;6.85;100.00
70304;BME280;57712;48.752;11.348;2023-11-19T01:50:06;97511.22;;;6.99;100.00
70304;BME280;57712;48.752;11.348;2023-11-19T01:52:36;97499.56;;;6.94;100.00
70304;BME280;57712;48.752;11.348;2023-11-19T01:55:06;97495.63;;;7.06;100.00
70304;BME280;57712;48.752;11.348;2023-11-19T01:57:34;97497.28;;;6.82;100.00
70304;BME280;57712;48.752;11.348;2023-11-19T02:00:04;97482.50;;;6.83;100.00
70304;BME280;57712;48.752;11.348;2023-11-19T02:02:32;97483.19;;;7.09;100.00
70304;BME280;57712;48.752;11.348;2023-11-19T02:04:59;97477.75;;;6.98;100.00
70304;BME280;57712;48.752;11.348;2023-11-19T02:07:26;97471.50;;;7.12;100.00
70304;BME280;57712;48.752;11.348;2023-11-19T02:09:53;97472.31;;;7.02;100.00
70304;BME280;57712;48.752;11.348;2023-11-19T02:12:20;97467.66;;;6.99;100.00
70304;BME280;57712;48.752;11.348;2023-11-19T02:14:47;97468.41;;;7.03;100.00
70304;BME280;57712;48.752;11.348;2023-11-19T02:17:27;97463.31;;;7.12;100.00
70304;BME280;57712;48.752;11.348;2023-11-19T02:19:54;97450.41;;;7.23;100.00
70304;BME280;57712;48.752;11.348;2023-11-19T02:22:21;97443.53;;;7.01;100.00
70304;BME280;57712;48.752;11.348;2023-11-19T02:24:51;97443.06;;;7.13;100.00
70304;BME280;57712;48.752;11.348;2023-11-19T02:27:31;97442.00;;;6.92;100.00
70304;BME280;57712;48.752;11.348;2023-11-19T02:30:00;97442.03;;;6.89;100.00
70304;BME280;57712;48.752;11.348;2023-11-19T02:32:27;97436.47;;;7.10;100.00
70304;BME280;57712;48.752;11.348;2023-11-19T02:34:55;97433.00;;;7.03;100.00
70304;BME280;57712;48.752;11.348;2023-11-19T02:37:34;97437.72;;;6.99;100.00
70304;BME280;57712;48.752;11.348;2023-11-19T02:40:01;97442.03;;;6.85;100.00
70304;BME280;57712;48.752;11.348;2023-11-19T02:42:31;97436.06;;;7.12;100.00
70304;BME280;57712;48.752;11.348;2023-11-19T02:44:58;97423.56;;;7.18;100.00
70304;BME280;57712;48.752;11.348;2023-11-19T02:47:25;97413.13;;;7.13;100.00
70304;BME280;57712;48.752;11.348;2023-11-19T02:49:52;97407.28;;;7.07;100.00
70304;BME280;57712;48.752;11.348;2023-11-19T02:52:19;97412.31;;;7.16;100.00
70304;BME280;57712;48.752;11.348;2023-11-19T02:54:46;97414.22;;;7.19;100.00
70304;BME280;57712;48.752;11.348;2023-11-19T02:57:13;97417.34;;;7.17;100.00
70304;BME280;57712;48.752;11.348;2023-11-19T02:59:43;97414.28;;;7.12;100.00
70304;BME280;57712;48.752;11.348;2023-11-19T03:02:10;97406.81;;;7.23;100.00
70304;BME280;57712;48.752;11.348;2023-11-19T03:04:42;97408.34;;;7.31;100.00
70304;BME280;57712;48.752;11.348;2023-11-19T03:07:10;97409.81;;;7.39;100.00
70304;BME280;57712;48.752;11.348;2023-11-19T03:09:38;97402.81;;;7.38;100.00
70304;BME280;57712;48.752;11.348;2023-11-19T03:12:08;97393.97;;;7.23;100.00
70304;BME280;57712;48.752;11.348;2023-11-19T03:14:35;97394.31;;;7.29;100.00
70304;BME280;57712;48.752;11.348;2023-11-19T03:17:02;97395.81;;;7.37;100.00
70304;BME280;57712;48.752;11.348;2023-11-19T03:19:30;97395.47;;;7.35;100.00
70304;BME280;57712;48.752;11.348;2023-11-19T03:21:56;97390.44;;;7.30;100.00
70304;BME280;57712;48.752;11.348;2023-11-19T03:24:23;97401.28;;;7.37;100.00
70304;BME280;57712;48.752;11.348;2023-11-19T03:26:51;97402.38;;;7.50;100.00
70304;BME280;57712;48.752;11.348;2023-11-19T03:29:18;97405.88;;;7.47;100.00
70304;BME280;57712;48.752;11.348;2023-11-19T03:31:45;97408.97;;;7.53;100.00
70304;BME280;57712;48.752;11.348;2023-11-19T03:34:11;97409.75;;;7.53;100.00
70304;BME280;57712;48.752;11.348;2023-11-19T03:36:38;97402.75;;;7.49;100.00
70304;BME280;57712;48.752;11.348;2023-11-19T03:39:06;97402.75;;;7.49;100.00
70304;BME280;57712;48.752;11.348;2023-11-19T03:41:33;97400.34;;;7.58;100.00
70304;BME280;57712;48.752;11.348;2023-11-19T03:44:02;97398.75;;;7.61;100.00
70304;BME280;57712;48.752;11.348;2023-11-19T03:46:29;97397.28;;;7.52;100.00
70304;BME280;57712;48.752;11.348;2023-11-19T03:48:56;97397.63;;;7.62;100.00
70304;BME280;57712;48.752;11.348;2023-11-19T03:51:23;97400.34;;;7.62;100.00
70304;BME280;57712;48.752;11.348;2023-11-19T03:53:50;97395.59;;;7.69;100.00
70304;BME280;57712;48.752;11.348;2023-11-19T03:56:16;97400.66;;;7.67;100.00
70304;BME280;57712;48.752;11.348;2023-11-19T03:58:43;97409.66;;;7.61;100.00
70304;BME280;57712;48.752;11.348;2023-11-19T04:01:13;97408.94;;;7.57;100.00
70304;BME280;57712;48.752;11.348;2023-11-19T04:03:40;97405.34;;;7.67;100.00
70304;BME280;57712;48.752;11.348;2023-11-19T04:06:16;97401.00;;;7.76;100.00
70304;BME280;57712;48.752;11.348;2023-11-19T04:08:43;97396.31;;;7.77;100.00
70304;BME280;57712;48.752;11.348;2023-11-19T04:11:10;97400.22;;;7.76;100.00
70304;BME280;57712;48.752;11.348;2023-11-19T04:13:37;97403.34;;;7.74;100.00
70304;BME280;57712;48.752;11.348;2023-11-19T04:16:04;97410.63;;;7.88;100.00
70304;BME280;57712;48.752;11.348;2023-11-19T04:18:31;97404.00;;;7.89;100.00
70304;BME280;57712;48.752;11.348;2023-11-19T04:20:58;97393.09;;;7.89;100.00
70304;BME280;57712;48.752;11.348;2023-11-19T04:23:25;97395.03;;;7.89;100.00
70304;BME280;57712;48.752;11.348;2023-11-19T04:25:52;97385.31;;;7.88;100.00
70304;BME280;57712;48.752;11.348;2023-11-19T04:28:18;97378.22;;;7.97;100.00
70304;BME280;57712;48.752;11.348;2023-11-19T04:30:45;97371.94;;;8.00;100.00
70304;BME280;57712;48.752;11.348;2023-11-19T04:33:12;97346.66;;;7.96;100.00
70304;BME280;57712;48.752;11.348;2023-11-19T04:35:39;97343.81;;;8.07;100.00
70304;BME280;57712;48.752;11.348;2023-11-19T04:38:06;97359.47;;;8.03;100.00
70304;BME280;57712;48.752;11.348;2023-11-19T04:40:33;97357.88;;;8.05;100.00
70304;BME280;57712;48.752;11.348;2023-11-19T04:43:00;97364.94;;;7.99;100.00
70304;BME280;57712;48.752;11.348;2023-11-19T04:45:27;97371.94;;;8.00;100.00
70304;BME280;57712;48.752;11.348;2023-11-19T04:47:54;97362.97;;;8.00;100.00
70304;BME280;57712;48.752;11.348;2023-11-19T04:50:20;97357.19;;;7.94;100.00
70304;BME280;57712;48.752;11.348;2023-11-19T04:52:48;97357.88;;;8.05;100.00
70304;BME280;57712;48.752;11.348;2023-11-19T04:55:14;97344.06;;;8.20;100.00
70304;BME280;57712;48.752;11.348;2023-11-19T04:57:42;97337.47;;;8.17;100.00
70304;BME280;57712;48.752;11.348;2023-11-19T05:00:10;97342.16;;;8.17;100.00
70304;BME280;57712;48.752;11.348;2023-11-19T05:02:40;97332.06;;;8.14;100.00
70304;BME280;57712;48.752;11.348;2023-11-19T05:05:07;97343.34;;;8.16;100.00
70304;BME280;57712;48.752;11.348;2023-11-19T05:07:36;97369.16;;;8.07;100.00
70304;BME280;57712;48.752;11.348;2023-11-19T05:10:03;97374.19;;;8.09;100.00
70304;BME280;57712;48.752;11.348;2023-11-19T05:12:30;97372.50;;;8.22;100.00
70304;BME280;57712;48.752;11.348;2023-11-19T05:14:58;97376.81;;;8.20;100.00
70304;BME280;57712;48.752;11.348;2023-11-19T05:17:25;97383.28;;;8.33;100.00
70304;BME280;57712;48.752;11.348;2023-11-19T05:19:52;97385.28;;;8.29;100.00
70304;BME280;57712;48.752;11.348;2023-11-19T05:22:19;97394.72;;;8.24;100.00
70304;BME280;57712;48.752;11.348;2023-11-19T05:24:47;97386.72;;;8.44;100.00
70304;BME280;57712;48.752;11.348;2023-11-19T05:27:16;97394.16;;;8.40;100.00
70304;BME280;57712;48.752;11.348;2023-11-19T05:29:42;97398.00;;;8.46;100.00
70304;BME280;57712;48.752;11.348;2023-11-19T05:32:10;97405.75;;;8.51;100.00
70304;BME280;57712;48.752;11.348;2023-11-19T05:34:38;97405.66;;;8.58;100.00
70304;BME280;57712;48.752;11.348;2023-11-19T05:37:17;97398.56;;;8.64;100.00
70304;BME280;57712;48.752;11.348;2023-11-19T05:39:45;97399.72;;;8.67;100.00
70304;BME280;57712;48.752;11.348;2023-11-19T05:42:12;97393.19;;;8.57;100.00
70304;BME280;57712;48.752;11.348;2023-11-19T05:44:39;97386.91;;;8.60;100.00
70304;BME280;57712;48.752;11.348;2023-11-19T05:47:07;97382.31;;;8.54;100.00
70304;BME280;57712;48.752;11.348;2023-11-19T05:49:34;97378.38;;;8.58;100.00
70304;BME280;57712;48.752;11.348;2023-11-19T05:52:00;97374.13;;;8.54;100.00
70304;BME280;57712;48.752;11.348;2023-11-19T05:54:30;97383.00;;;8.61;100.00
70304;BME280;57712;48.752;11.348;2023-11-19T05:56:58;97374.44;;;8.59;100.00
70304;BME280;57712;48.752;11.348;2023-11-19T05:59:24;97365.06;;;8.60;100.00
70304;BME280;57712;48.752;11.348;2023-11-19T06:01:51;97366.97;;;8.67;100.00
70304;BME280;57712;48.752;11.348;2023-11-19T06:04:18;97358.78;;;8.63;100.00
70304;BME280;57712;48.752;11.348;2023-11-19T06:06:45;97366.69;;;8.58;100.00
70304;BME280;57712;48.752;11.348;2023-11-19T06:09:11;97368.09;;;8.70;100.00
70304;BME280;57712;48.752;11.348;2023-11-19T06:11:40;97365.31;;;8.73;100.00
70304;BME280;57712;48.752;11.348;2023-11-19T06:14:07;97364.53;;;8.73;100.00
70304;BME280;57712;48.752;11.348;2023-11-19T06:16:34;97355.53;;;8.76;100.00
70304;BME280;57712;48.752;11.348;2023-11-19T06:19:03;97364.09;;;8.78;100.00
70304;BME280;57712;48.752;11.348;2023-11-19T06:21:31;97367.94;;;8.80;100.00
70304;BME280;57712;48.752;11.348;2023-11-19T06:23:58;97370.34;;;8.75;100.00
70304;BME280;57712;48.752;11.348;2023-11-19T06:26:24;97376.47;;;8.86;100.00
70304;BME280;57712;48.752;11.348;2023-11-19T06:28:51;97381.13;;;8.85;100.00
70304;BME280;57712;48.752;11.348;2023-11-19T06:31:18;97375.66;;;8.89;100.00
70304;BME280;57712;48.752;11.348;2023-11-19T06:33:46;97372.03;;;8.95;100.00
70304;BME280;57712;48.752;11.348;2023-11-19T06:36:14;97373.19;;;8.98;100.00
70304;BME280;57712;48.752;11.348;2023-11-19T06:38:43;97384.84;;;9.02;100.00
70304;BME280;57712;48.752;11.348;2023-11-19T06:41:10;97377.25;;;9.13;100.00
70304;BME280;57712;48.752;11.348;2023-11-19T06:43:36;97369.53;;;9.08;100.00
70304;BME280;57712;48.752;11.348;2023-11-19T06:46:15;97373.69;;;9.16;100.00
70304;BME280;57712;48.752;11.348;2023-11-19T06:48:41;97370.00;;;9.30;100.00
70304;BME280;57712;48.752;11.348;2023-11-19T06:51:13;97375.88;;;9.29;100.00
70304;BME280;57712;48.752;11.348;2023-11-19T06:53:45;97363.41;;;9.28;100.00
70304;BME280;57712;48.752;11.348;2023-11-19T06:56:23;97369.22;;;9.30;100.00
70304;BME280;57712;48.752;11.348;2023-11-19T06:58:50;97364.94;;;9.29;100.00
70304;BME280;57712;48.752;11.348;2023-11-19T07:01:17;97364.13;;;9.32;100.00
70304;BME280;57712;48.752;11.348;2023-11-19T07:03:45;97374.22;;;9.35;100.00
70304;BME280;57712;48.752;11.348;2023-11-19T07:06:13;97368.72;;;9.38;100.00
70304;BME280;57712;48.752;11.348;2023-11-19T07:08:44;97373.28;;;9.45;100.00
70304;BME280;57712;48.752;11.348;2023-11-19T07:11:13;97368.41;;;9.56;100.00
70304;BME280;57712;48.752;11.348;2023-11-19T07:13:42;97366.19;;;9.47;100.00
70304;BME280;57712;48.752;11.348;2023-11-19T07:16:09;97370.78;;;9.54;100.00
70304;BME280;57712;48.752;11.348;2023-11-19T07:18:38;97376.75;;;9.72;100.00
70304;BME280;57712;48.752;11.348;2023-11-19T07:21:05;97368.25;;;9.67;100.00
70304;BME280;57712;48.752;11.348;2023-11-19T07:23:32;97375.16;;;9.75;100.00
70304;BME280;57712;48.752;11.348;2023-11-19T07:26:00;97378.31;;;9.73;100.00
70304;BME280;57712;48.752;11.348;2023-11-19T07:28:28;97385.66;;;9.76;100.00
70304;BME280;57712;48.752;11.348;2023-11-19T07:30:55;97381.03;;;9.73;100.00
70304;BME280;57712;48.752;11.348;2023-11-19T07:33:23;97388.88;;;9.95;100.00
70304;BME280;57712;48.752;11.348;2023-11-19T07:35:49;97399.31;;;9.80;100.00
70304;BME280;57712;48.752;11.348;2023-11-19T07:38:17;97389.41;;;9.86;100.00
70304;BME280;57712;48.752;11.348;2023-11-19T07:40:44;97397.78;;;9.99;100.00
70304;BME280;57712;48.752;11.348;2023-11-19T07:43:22;97388.88;;;9.95;100.00
70304;BME280;57712;48.752;11.348;2023-11-19T07:45:49;97393.75;;;10.07;100.00
70304;BME280;57712;48.752;11.348;2023-11-19T07:48:16;97389.53;;;10.02;100.00
70304;BME280;57712;48.752;11.348;2023-11-19T07:50:44;97396.84;;;10.09;100.00
70304;BME280;57712;48.752;11.348;2023-11-19T07:53:11;97397.75;;;10.02;100.00
70304;BME280;57712;48.752;11.348;2023-11-19T07:55:39;97402.03;;;10.03;100.00
70304;BME280;57712;48.752;11.348;2023-11-19T07:58:08;97398.00;;;10.11;100.00
70304;BME280;57712;48.752;11.348;2023-11-19T08:00:34;97400.94;;;10.21;100.00
70304;BME280;57712;48.752;11.348;2023-11-19T08:03:01;97399.13;;;10.14;100.00
70304;BME280;57712;48.752;11.348;2023-11-19T08:05:28;97398.34;;;10.13;100.00
70304;BME280;57712;48.752;11.348;2023-11-19T08:07:55;97388.16;;;10.14;100.00
70304;BME280;57712;48.752;11.348;2023-11-19T08:10:22;97402.91;;;10.20;100.00
70304;BME280;57712;48.752;11.348;2023-11-19T08:12:49;97399.97;;;10.11;100.00
70304;BME280;57712;48.752;11.348;2023-11-19T08:15:15;97407.25;;;10.18;100.00
70304;BME280;57712;48.752;11.348;2023-11-19T08:17:57;97407.16;;;10.25;100.00
70304;BME280;57712;48.752;11.348;2023-11-19T08:20:24;97404.84;;;10.23;100.00
70304;BME280;57712;48.752;11.348;2023-11-19T08:22:51;97404.00;;;10.26;100.00
70304;BME280;57712;48.752;11.348;2023-11-19T08:25:18;97393.91;;;10.20;100.00
70304;BME280;57712;48.752;11.348;2023-11-19T08:27:44;97399.19;;;10.34;100.00
70304;BME280;57712;48.752;11.348;2023-11-19T08:30:11;97400.31;;;10.56;100.00
70304;BME280;57712;48.752;11.348;2023-11-19T08:32:38;97405.56;;;10.47;100.00
70304;BME280;57712;48.752;11.348;2023-11-19T08:35:05;97403.13;;;10.53;100.00
70304;BME280;57712;48.752;11.348;2023-11-19T08:37:32;97392.66;;;10.48;100.00
70304;BME280;57712;48.752;11.348;2023-11-19T08:39:59;97401.78;;;10.61;100.00
70304;BME280;57712;48.752;11.348;2023-11-19T08:42:26;97396.94;;;10.49;100.00
70304;BME280;57712;48.752;11.348;2023-11-19T08:44:52;97406.69;;;10.50;100.00
70304;BME280;57712;48.752;11.348;2023-11-19T08:47:21;97405.88;;;10.53;100.00
70304;BME280;57712;48.752;11.348;2023-11-19T08:49:52;97422.44;;;10.46;100.00
70304;BME280;57712;48.752;11.348;2023-11-19T08:52:22;97418.50;;;10.47;100.00
70304;BME280;57712;48.752;11.348;2023-11-19T08:54:49;97420.47;;;10.66;100.00
70304;BME280;57712;48.752;11.348;2023-11-19T08:57:16;97419.06;;;10.58;100.00
70304;BME280;57712;48.752;11.348;2023-11-19T08:59:42;97424.19;;;10.56;100.00
70304;BME280;57712;48.752;11.348;2023-11-19T09:02:10;97415.56;;;10.77;100.00
70304;BME280;57712;48.752;11.348;2023-11-19T09:04:37;97404.03;;;10.66;100.00
70304;BME280;57712;48.752;11.348;2023-11-19T09:07:04;97408.59;;;10.73;100.00
70304;BME280;57712;48.752;11.348;2023-11-19T09:09:31;97389.00;;;10.74;100.00
70304;BME280;57712;48.752;11.348;2023-11-19T09:12:01;97385.63;;;10.86;100.00
70304;BME280;57712;48.752;11.348;2023-11-19T09:14:27;97397.91;;;10.98;100.00
70304;BME280;57712;48.752;11.348;2023-11-19T09:16:54;97391.69;;;11.14;100.00
70304;BME280;57712;48.752;11.348;2023-11-19T09:19:22;97380.75;;;11.30;100.00
70304;BME280;57712;48.752;11.348;2023-11-19T09:21:49;97379.88;;;11.17;100.00
70304;BME280;57712;48.752;11.348;2023-11-19T09:24:15;97372.00;;;11.35;100.00
70304;BME280;57712;48.752;11.348;2023-11-19T09:26:42;97398.59;;;11.38;100.00
70304;BME280;57712;48.752;11.348;2023-11-19T09:29:09;97394.91;;;11.45;100.00
70304;BME280;57712;48.752;11.348;2023-11-19T09:31:37;97399.75;;;11.57;100.00
70304;BME280;57712;48.752;11.348;2023-11-19T09:34:04;97402.06;;;11.59;100.00
70304;BME280;57712;48.752;11.348;2023-11-19T09:36:32;97411.63;;;11.67;100.00
70304;BME280;57712;48.752;11.348;2023-11-19T09:38:58;97401.38;;;11.87;100.00
70304;BME280;57712;48.752;11.348;2023-11-19T09:41:27;97403.03;;;11.84;100.00
70304;BME280;57712;48.752;11.348;2023-11-19T09:43:54;97405.81;;;11.65;100.00
70304;BME280;57712;48.752;11.348;2023-11-19T09:46:21;97403.78;;;11.69;100.00
70304;BME280;57712;48.752;11.348;2023-11-19T09:48:48;97410.16;;;11.82;100.00
70304;BME280;57712;48.752;11.348;2023-11-19T09:51:19;97408.91;;;11.67;100.00
70304;BME280;57712;48.752;11.348;2023-11-19T09:53:45;97410.28;;;11.75;100.00
70304;BME280;57712;48.752;11.348;2023-11-19T09:56:13;97395.88;;;11.87;100.00
70304;BME280;57712;48.752;11.348;2023-11-19T09:58:41;97384.03;;;11.74;100.00
70304;BME280;57712;48.752;11.348;2023-11-19T10:01:08;97391.34;;;11.97;100.00
70304;BME280;57712;48.752;11.348;2023-11-19T10:03:41;97382.00;;;11.94;100.00
70304;BME280;57712;48.752;11.348;2023-11-19T10:06:10;97395.06;;;11.90;100.00
70304;BME280;57712;48.752;11.348;2023-11-19T10:08:38;97381.41;;;12.03;100.00
70304;BME280;57712;48.752;11.348;2023-11-19T10:11:08;97375.44;;;12.21;100.00
70304;BME280;57712;48.752;11.348;2023-11-19T10:13:37;97372.16;;;12.26;100.00
70304;BME280;57712;48.752;11.348;2023-11-19T10:16:11;97366.84;;;12.19;100.00
70304;BME280;57712;48.752;11.348;2023-11-19T10:18:49;97365.63;;;12.36;100.00
70304;BME280;57712;48.752;11.348;2023-11-19T10:21:17;97366.50;;;12.33;100.00
70304;BME280;57712;48.752;11.348;2023-11-19T10:23:57;97364.81;;;12.23;100.00
70304;BME280;57712;48.752;11.348;2023-11-19T10:26:26;97347.50;;;12.38;100.00
70304;BME280;57712;48.752;11.348;2023-11-19T10:28:55;97358.75;;;12.28;100.00
70304;BME280;57712;48.752;11.348;2023-11-19T10:31:22;97353.09;;;12.35;100.00
70304;BME280;57712;48.752;11.348;2023-11-19T10:33:53;97357.72;;;12.38;100.00
70304;BME280;57712;48.752;11.348;2023-11-19T10:36:20;97362.44;;;12.37;100.00
70304;BME280;57712;48.752;11.348;2023-11-19T10:38:54;97361.66;;;12.37;100.00
70304;BME280;57712;48.752;11.348;2023-11-19T10:41:30;97359.53;;;12.57;100.00
70304;BME280;57712;48.752;11.348;2023-11-19T10:43:58;97361.03;;;12.75;100.00
70304;BME280;57712;48.752;11.348;2023-11-19T10:46:38;97363.91;;;12.84;100.00
70304;BME280;57712;48.752;11.348;2023-11-19T10:49:09;97364.34;;;12.95;100.00
70304;BME280;57712;48.752;11.348;2023-11-19T10:51:36;97355.19;;;12.73;100.00
70304;BME280;57712;48.752;11.348;2023-11-19T10:54:04;97359.00;;;12.62;100.00
70304;BME280;57712;48.752;11.348;2023-11-19T10:56:34;97356.66;;;12.48;100.00
70304;BME280;57712;48.752;11.348;2023-11-19T10:59:01;97346.53;;;12.45;100.00
70304;BME280;57712;48.752;11.348;2023-11-19T11:01:43;97327.75;;;12.43;100.00
70304;BME280;57712;48.752;11.348;2023-11-19T11:04:14;97337.28;;;12.39;100.00
70304;BME280;57712;48.752;11.348;2023-11-19T11:06:42;97334.78;;;12.45;100.00
70304;BME280;57712;48.752;11.348;2023-11-19T11:09:10;97320.41;;;12.53;100.00
70304;BME280;57712;48.752;11.348;2023-11-19T11:11:40;97319.53;;;12.56;100.00
70304;BME280;57712;48.752;11.348;2023-11-19T11:14:07;97323.81;;;12.57;100.00
70304;BME280;57712;48.752;11.348;2023-11-19T11:16:37;97325.16;;;12.65;100.00
70304;BME280;57712;48.752;11.348;2023-11-19T11:19:05;97308.56;;;12.82;100.00
70304;BME280;57712;48.752;11.348;2023-11-19T11:21:37;97302.44;;;13.16;100.00
70304;BME280;57712;48.752;11.348;2023-11-19T11:24:41;97316.97;;;13.16;100.00
70304;BME280;57712;48.752;11.348;2023-11-19T11:30:28;97322.03;;;13.05;100.00
70304;BME280;57712;48.752;11.348;2023-11-19T11:36:22;97307.84;;;13.19;100.00
70304;BME280;57712;48.752;11.348;2023-11-19T11:38:49;97299.50;;;13.36;100.00
70304;BME280;57712;48.752;11.348;2023-11-19T11:43:46;97293.19;;;14.17;100.00
70304;BME280;57712;48.752;11.348;2023-11-19T11:49:01;97288.97;;;14.25;100.00
70304;BME280;57712;48.752;11.348;2023-11-19T11:57:05;97270.41;;;14.38;100.00
70304;BME280;57712;48.752;11.348;2023-11-19T12:02:09;97279.53;;;14.35;100.00
70304;BME280;57712;48.752;11.348;2023-11-19T12:04:36;97278.53;;;14.64;100.00
70304;BME280;57712;48.752;11.348;2023-11-19T12:07:16;97270.47;;;15.19;100.00
70304;BME280;57712;48.752;11.348;2023-11-19T12:09:47;97263.22;;;14.63;100.00
70304;BME280;57712;48.752;11.348;2023-11-19T12:15:04;97264.53;;;14.89;100.00
70304;BME280;57712;48.752;11.348;2023-11-19T12:22:29;97250.50;;;15.55;100.00
70304;BME280;57712;48.752;11.348;2023-11-19T12:24:56;97249.78;;;16.00;100.00
70304;BME280;57712;48.752;11.348;2023-11-19T12:27:23;97252.59;;;15.33;100.00
70304;BME280;57712;48.752;11.348;2023-11-19T12:29:49;97243.56;;;15.32;100.00
70304;BME280;57712;48.752;11.348;2023-11-19T12:32:17;97245.28;;;15.57;100.00
70304;BME280;57712;48.752;11.348;2023-11-19T12:34:45;97242.00;;;15.22;100.00
70304;BME280;57712;48.752;11.348;2023-11-19T12:37:11;97254.28;;;14.90;100.00
70304;BME280;57712;48.752;11.348;2023-11-19T12:39:38;97237.38;;;15.19;100.00
70304;BME280;57712;48.752;11.348;2023-11-19T12:42:05;97239.16;;;14.94;100.00
70304;BME280;57712;48.752;11.348;2023-11-19T12:44:32;97223.69;;;15.06;100.00
70304;BME280;57712;48.752;11.348;2023-11-19T12:47:05;97229.22;;;15.06;100.00
70304;BME280;57712;48.752;11.348;2023-11-19T12:49:35;97231.66;;;14.64;100.00
70304;BME280;57712;48.752;11.348;2023-11-19T12:52:02;97236.88;;;14.62;100.00
70304;BME280;57712;48.752;11.348;2023-11-19T12:54:37;97241.00;;;14.66;100.00
70304;BME280;57712;48.752;11.348;2023-11-19T12:57:05;97241.78;;;14.67;100.00
70304;BME280;57712;48.752;11.348;2023-11-19T12:59:31;97235.31;;;14.61;100.00
70304;BME280;57712;48.752;11.348;2023-11-19T13:01:58;97236.34;;;14.85;100.00
70304;BME280;57712;48.752;11.348;2023-11-19T13:04:30;97243.09;;;15.34;100.00
70304;BME280;57712;48.752;11.348;2023-11-19T13:06:59;97230.09;;;15.43;100.00
70304;BME280;57712;48.752;11.348;2023-11-19T13:09:29;97227.84;;;15.01;100.00
70304;BME280;57712;48.752;11.348;2023-11-19T13:11:56;97230.22;;;14.81;100.00
70304;BME280;57712;48.752;11.348;2023-11-19T13:14:23;97230.72;;;14.98;100.00
70304;BME280;57712;48.752;11.348;2023-11-19T13:16:50;97228.19;;;15.22;100.00
70304;BME280;57712;48.752;11.348;2023-11-19T13:19:16;97202.16;;;15.41;100.00